Time;durP1;ratioP1;P1;durP2;ratioP2;P2;SDS_P1;SDS_P2;PMS_P1;PMS_P2;Temp;Humidity;BMP_temperature;BMP_pressure;BME280_temperature;BME280_humidity;BME280_pressure;Samples;Min_cycle;Max_cycle;Signal;HPM_P1;HPM_P2
2023/12/27 00:00:37;;;;;;;1.07;0.80;;;;;;;5.87;76.05;99723.94;4988838;28;20212;-55
2023/12/27 00:03:05;;;;;;;0.80;0.60;;;;;;;5.83;75.35;99728.19;4995636;28;20204;-57
2023/12/27 00:05:33;;;;;;;1.40;0.60;;;;;;;5.74;74.71;99729.03;5002305;28;20204;-57
2023/12/27 00:08:02;;;;;;;3.60;0.60;;;;;;;5.71;74.59;99721.34;5000347;28;20670;-57
2023/12/27 00:10:30;;;;;;;0.63;0.60;;;;;;;5.68;74.23;99731.56;4998099;28;20258;-58
2023/12/27 00:12:58;;;;;;;1.03;0.77;;;;;;;5.66;74.30;99740.91;5007088;28;20257;-53
2023/12/27 00:15:27;;;;;;;0.87;0.60;;;;;;;5.67;73.35;99745.22;4995537;28;20227;-55
2023/12/27 00:17:55;;;;;;;0.97;0.60;;;;;;;5.70;73.37;99742.63;4993659;28;20207;-56
2023/12/27 00:20:23;;;;;;;0.93;0.60;;;;;;;5.70;73.26;99757.13;4993910;28;20230;-57
2023/12/27 00:22:51;;;;;;;1.30;0.40;;;;;;;5.71;72.57;99756.28;4992803;28;20239;-54
2023/12/27 00:25:19;;;;;;;0.50;0.50;;;;;;;5.73;72.39;99773.31;4990718;28;20650;-58
2023/12/27 00:27:47;;;;;;;1.50;0.50;;;;;;;5.74;72.88;99763.94;4998394;28;20674;-56
2023/12/27 00:30:15;;;;;;;1.50;0.50;;;;;;;5.73;73.24;99788.66;4997295;28;20211;-57
2023/12/27 00:32:44;;;;;;;0.47;0.47;;;;;;;5.72;73.10;99779.28;4995969;28;20211;-56
2023/12/27 00:35:13;;;;;;;0.70;0.70;;;;;;;5.74;72.78;99795.50;4991883;28;20239;-57
2023/12/27 00:37:41;;;;;;;1.83;0.80;;;;;;;5.73;72.91;99796.31;4999421;28;20200;-57
2023/12/27 00:40:10;;;;;;;0.90;0.60;;;;;;;5.73;72.74;99803.16;4989387;28;20246;-56
2023/12/27 00:42:37;;;;;;;0.70;0.50;;;;;;;5.70;72.32;99809.09;5004509;28;20215;-58
2023/12/27 00:45:06;;;;;;;1.50;0.60;;;;;;;5.64;71.78;99796.31;4997002;28;20235;-57
2023/12/27 00:47:34;;;;;;;1.37;1.10;;;;;;;5.61;71.68;99824.41;5001782;28;20573;-64
2023/12/27 00:50:04;;;;;;;0.50;0.50;;;;;;;5.58;71.04;99817.56;4997007;28;20203;-58
2023/12/27 00:52:32;;;;;;;1.43;0.90;;;;;;;5.55;69.83;99822.66;4999636;28;20658;-54
2023/12/27 00:55:00;;;;;;;1.17;0.40;;;;;;;5.50;69.57;99824.34;5001468;28;20269;-55
2023/12/27 00:57:27;;;;;;;0.50;0.50;;;;;;;5.51;68.76;99832.84;4996988;28;20604;-56
2023/12/27 00:59:55;;;;;;;1.07;0.53;;;;;;;5.48;67.36;99838.78;5003359;28;20610;-56
2023/12/27 01:02:23;;;;;;;0.60;0.60;;;;;;;5.47;67.41;99826.03;4998725;28;20204;-57
2023/12/27 01:04:52;;;;;;;0.63;0.53;;;;;;;5.44;67.46;99837.06;4995074;28;20199;-56
2023/12/27 01:07:22;;;;;;;1.60;0.70;;;;;;;5.41;67.83;99852.38;4999749;28;20588;-55
2023/12/27 01:09:50;;;;;;;0.77;0.67;;;;;;;5.38;68.01;99851.53;4995899;28;20627;-58
2023/12/27 01:12:18;;;;;;;1.70;0.70;;;;;;;5.36;68.38;99848.09;4997514;28;20265;-57
2023/12/27 01:14:46;;;;;;;0.90;0.63;;;;;;;5.34;69.18;99858.31;4996977;28;20204;-56
2023/12/27 01:17:14;;;;;;;1.53;0.90;;;;;;;5.30;68.98;99870.22;4997902;28;20254;-56
2023/12/27 01:19:42;;;;;;;2.00;0.80;;;;;;;5.31;69.91;99877.03;5004811;28;20231;-57
2023/12/27 01:22:10;;;;;;;1.53;0.90;;;;;;;5.32;70.00;99873.63;4996219;28;20243;-55
2023/12/27 01:24:39;;;;;;;1.23;0.70;;;;;;;5.35;69.78;99884.72;4995132;28;20208;-56
2023/12/27 01:27:07;;;;;;;1.07;0.90;;;;;;;5.38;69.67;99877.09;4998128;28;20270;-55
2023/12/27 01:29:35;;;;;;;1.93;0.67;;;;;;;5.41;69.44;99893.25;4998966;28;20208;-56
2023/12/27 01:32:03;;;;;;;1.47;0.87;;;;;;;5.43;68.99;99867.75;4999619;28;20672;-56
2023/12/27 01:34:31;;;;;;;4.33;1.10;;;;;;;5.45;69.05;99883.91;4995724;28;20670;-56
2023/12/27 01:37:01;;;;;;;1.33;0.90;;;;;;;5.47;68.82;99892.47;4996999;28;20216;-54
2023/12/27 01:39:30;;;;;;;1.57;0.80;;;;;;;5.47;68.43;99895.88;4999142;28;20322;-55
2023/12/27 01:41:59;;;;;;;0.80;0.77;;;;;;;5.45;68.28;99889.03;4993758;28;20231;-55
2023/12/27 01:44:27;;;;;;;1.33;0.80;;;;;;;5.42;67.82;99886.47;4995590;28;20839;-55
2023/12/27 01:46:55;;;;;;;2.53;0.80;;;;;;;5.40;67.88;99900.94;5003602;28;20743;-55
2023/12/27 01:49:23;;;;;;;0.97;0.70;;;;;;;5.39;68.48;99910.28;5005576;28;20638;-61
2023/12/27 01:51:51;;;;;;;1.10;0.80;;;;;;;5.39;68.25;99920.50;4992883;28;20204;-58
2023/12/27 01:54:19;;;;;;;4.40;1.20;;;;;;;5.39;68.34;99924.78;5005753;28;20199;-60
2023/12/27 01:56:48;;;;;;;1.90;0.80;;;;;;;5.39;68.24;99919.66;4996614;28;20306;-55
2023/12/27 01:59:17;;;;;;;1.17;0.87;;;;;;;5.39;67.95;99929.88;5001146;28;20334;-58
2023/12/27 02:01:46;;;;;;;1.30;0.73;;;;;;;5.38;67.92;99931.59;4989384;28;20549;-55
2023/12/27 02:04:14;;;;;;;1.00;0.90;;;;;;;5.35;68.08;99918.78;5003677;28;20557;-54
2023/12/27 02:06:42;;;;;;;0.70;0.70;;;;;;;5.38;68.03;99928.19;5003774;28;20684;-56
2023/12/27 02:09:11;;;;;;;1.47;0.90;;;;;;;5.36;68.94;99934.97;4993318;28;20267;-61
2023/12/27 02:11:39;;;;;;;1.13;0.87;;;;;;;5.38;68.78;99935.84;4993718;28;20215;-54
2023/12/27 02:14:07;;;;;;;0.83;0.60;;;;;;;5.37;69.93;99937.53;4997710;28;20200;-57
2023/12/27 02:16:37;;;;;;;1.50;0.80;;;;;;;5.38;70.55;99935.84;4996415;28;20271;-56
2023/12/27 02:19:06;;;;;;;2.27;1.03;;;;;;;5.36;71.33;99933.25;4997301;28;20737;-56
2023/12/27 02:21:35;;;;;;;1.53;0.87;;;;;;;5.34;71.54;99945.19;4993464;28;20674;-55
2023/12/27 02:24:06;;;;;;;2.27;0.70;;;;;;;5.29;72.55;99944.28;4996553;28;20246;-55
2023/12/27 02:26:35;;;;;;;1.30;0.80;;;;;;;5.26;72.77;99945.09;4999372;28;20239;-53
2023/12/27 02:29:03;;;;;;;0.70;0.60;;;;;;;5.21;72.38;99946.78;4998903;28;20567;-54
2023/12/27 02:31:31;;;;;;;0.57;0.57;;;;;;;5.19;72.91;99945.91;5008467;28;20247;-55
2023/12/27 02:33:59;;;;;;;1.23;0.90;;;;;;;5.14;71.69;99975.66;4985278;28;20204;-55
2023/12/27 02:36:28;;;;;;;1.37;0.73;;;;;;;5.08;71.90;99958.59;4996581;28;20713;-59
2023/12/27 02:38:56;;;;;;;1.30;1.00;;;;;;;5.03;71.57;99962.78;5002344;28;20204;-57
2023/12/27 02:41:24;;;;;;;1.00;0.73;;;;;;;4.98;71.02;99964.44;4981424;28;20196;-55
2023/12/27 02:43:53;;;;;;;1.20;0.80;;;;;;;4.95;71.11;99969.50;4993583;28;20212;-55
2023/12/27 02:46:21;;;;;;;1.00;0.80;;;;;;;4.90;71.38;99976.28;4994279;28;20646;-57
2023/12/27 02:48:49;;;;;;;2.87;0.97;;;;;;;4.84;70.84;99979.63;4993639;28;20215;-58
2023/12/27 02:51:17;;;;;;;1.73;0.80;;;;;;;4.79;70.73;99967.66;4990757;28;20284;-55
2023/12/27 02:53:45;;;;;;;1.27;0.83;;;;;;;4.76;70.38;99973.59;4992935;28;20235;-53
2023/12/27 02:56:13;;;;;;;1.50;0.93;;;;;;;4.74;69.92;99970.13;5003397;28;20215;-58
2023/12/27 02:58:40;;;;;;;0.80;0.70;;;;;;;4.74;69.68;99990.56;4993401;28;20226;-57
2023/12/27 03:01:10;;;;;;;1.57;0.80;;;;;;;4.74;69.17;100007.56;4994721;28;20204;-56
2023/12/27 03:03:37;;;;;;;1.50;0.70;;;;;;;4.70;68.98;99991.38;4993155;28;20207;-58
2023/12/27 03:06:06;;;;;;;0.60;0.53;;;;;;;4.66;69.06;100004.94;4995389;28;20599;-56
2023/12/27 03:08:35;;;;;;;2.87;0.87;;;;;;;4.63;68.95;99997.25;4992472;28;20231;-55
2023/12/27 03:11:06;;;;;;;0.97;0.50;;;;;;;4.58;68.86;99998.88;4995376;28;20207;-55
2023/12/27 03:13:34;;;;;;;7.77;1.47;;;;;;;4.54;68.73;99992.03;4999553;28;20575;-56
2023/12/27 03:16:05;;;;;;;0.90;0.77;;;;;;;4.51;69.19;99982.66;4994224;28;20212;-56
2023/12/27 03:18:35;;;;;;;3.10;0.80;;;;;;;4.47;69.49;99985.16;4997043;28;20199;-56
2023/12/27 03:21:03;;;;;;;1.70;0.83;;;;;;;4.43;70.26;99996.16;4999680;28;20200;-54
2023/12/27 03:23:31;;;;;;;0.97;0.77;;;;;;;4.36;70.40;100008.81;4981584;28;20294;-55
2023/12/27 03:25:59;;;;;;;1.83;0.90;;;;;;;4.29;71.42;100011.28;4997399;28;20671;-53
2023/12/27 03:28:26;;;;;;;3.87;0.80;;;;;;;4.26;71.21;100034.19;4996925;28;20627;-54
2023/12/27 03:30:54;;;;;;;1.83;0.73;;;;;;;4.21;71.39;100018.81;4991937;28;20200;-55
2023/12/27 03:33:22;;;;;;;1.73;0.93;;;;;;;4.17;71.36;100014.53;4990321;28;20212;-56
2023/12/27 03:35:52;;;;;;;1.80;1.60;;;;;;;4.13;71.38;100033.16;4998056;28;20199;-57
2023/12/27 03:38:20;;;;;;;4.10;1.00;;;;;;;4.12;71.55;100044.19;4997663;28;20215;-56
2023/12/27 03:40:48;;;;;;;2.37;0.90;;;;;;;4.11;71.82;100037.38;4999898;28;20647;-56
2023/12/27 03:43:16;;;;;;;3.13;1.23;;;;;;;4.10;72.14;100036.53;4993383;28;20212;-57
2023/12/27 03:45:45;;;;;;;2.33;1.10;;;;;;;4.07;71.88;100046.66;4998578;28;20207;-56
2023/12/27 03:48:13;;;;;;;3.90;1.27;;;;;;;4.09;72.03;100042.47;4998869;28;20200;-57
2023/12/27 03:50:41;;;;;;;3.50;1.10;;;;;;;4.08;72.30;100050.06;4994597;28;20208;-56
2023/12/27 03:53:10;;;;;;;3.17;1.07;;;;;;;4.04;72.56;100041.53;4991783;28;20295;-56
2023/12/27 03:55:38;;;;;;;3.97;1.00;;;;;;;4.00;72.75;100060.16;4991689;28;20210;-55
2023/12/27 03:58:06;;;;;;;2.30;1.20;;;;;;;3.99;73.64;100052.50;4987044;28;20216;-53
2023/12/27 04:00:34;;;;;;;2.47;1.00;;;;;;;3.96;74.11;100053.31;4993679;28;20227;-54
2023/12/27 04:03:02;;;;;;;1.93;0.93;;;;;;;3.93;74.04;100054.94;4995607;28;20290;-57
2023/12/27 04:05:30;;;;;;;2.77;1.00;;;;;;;3.90;74.77;100062.53;4985996;28;20222;-55
2023/12/27 04:07:58;;;;;;;1.23;1.10;;;;;;;3.87;75.14;100061.69;4994724;28;20204;-56
2023/12/27 04:10:31;;;;;;;2.30;1.10;;;;;;;3.82;75.20;100058.19;4997374;28;20538;-56
2023/12/27 04:12:59;;;;;;;2.23;0.70;;;;;;;3.79;75.51;100070.00;5005716;28;20199;-54
2023/12/27 04:15:27;;;;;;;2.10;0.67;;;;;;;3.76;75.81;100085.28;5002153;28;20294;-58
2023/12/27 04:17:55;;;;;;;2.67;0.63;;;;;;;3.73;76.18;100085.22;4996484;28;20219;-55
2023/12/27 04:20:24;;;;;;;3.23;0.80;;;;;;;3.71;76.35;100082.63;5000070;28;20206;-57
2023/12/27 04:22:52;;;;;;;1.20;0.77;;;;;;;3.71;76.91;100094.53;4997976;28;20236;-54
2023/12/27 04:25:19;;;;;;;3.70;1.10;;;;;;;3.74;77.05;100100.53;5005599;28;20207;-55
2023/12/27 04:27:49;;;;;;;1.67;0.60;;;;;;;3.74;76.76;100097.97;5004088;28;20210;-55
2023/12/27 04:30:16;;;;;;;1.60;0.70;;;;;;;3.74;77.42;100102.22;4995554;28;20200;-56
2023/12/27 04:32:44;;;;;;;1.43;0.80;;;;;;;3.78;77.25;100094.66;4990063;28;20251;-55
2023/12/27 04:35:13;;;;;;;2.60;0.80;;;;;;;3.79;76.66;100093.84;5003009;28;20226;-56
2023/12/27 04:37:40;;;;;;;2.60;1.00;;;;;;;3.81;76.81;100098.94;4997022;28;20596;-55
2023/12/27 04:40:09;;;;;;;2.77;0.73;;;;;;;3.82;76.42;100116.78;4995853;28;20332;-57
2023/12/27 04:42:37;;;;;;;3.03;1.10;;;;;;;3.84;76.16;100114.28;4996834;28;20245;-57
2023/12/27 04:45:08;;;;;;;3.30;0.70;;;;;;;3.90;75.95;100126.25;5001617;28;20731;-57
2023/12/27 04:47:36;;;;;;;5.33;0.80;;;;;;;3.94;76.16;100126.38;4994493;28;20204;-56
2023/12/27 04:50:04;;;;;;;2.90;0.97;;;;;;;3.95;75.26;100137.41;5004925;28;20570;-56
2023/12/27 04:52:33;;;;;;;1.87;1.13;;;;;;;3.98;75.62;100135.78;5002541;28;20255;-57
2023/12/27 04:55:00;;;;;;;2.30;1.10;;;;;;;3.99;75.08;100129.84;4994763;28;20208;-56
2023/12/27 04:57:28;;;;;;;4.57;0.87;;;;;;;4.02;75.27;100127.34;4997561;28;20251;-55
2023/12/27 04:59:56;;;;;;;2.07;0.80;;;;;;;4.02;75.09;100127.34;4991575;28;20200;-55
2023/12/27 05:02:26;;;;;;;2.33;0.80;;;;;;;4.04;74.58;100132.44;4995931;28;20200;-55
2023/12/27 05:04:54;;;;;;;6.10;1.37;;;;;;;4.00;74.63;100129.00;4994322;28;20207;-60
2023/12/27 05:07:22;;;;;;;2.63;0.90;;;;;;;3.98;74.83;100137.47;5000108;28;20784;-56
2023/12/27 05:09:50;;;;;;;2.20;0.93;;;;;;;3.97;75.34;100145.94;4996070;28;20655;-58
2023/12/27 05:12:18;;;;;;;1.40;0.63;;;;;;;3.99;75.48;100154.47;5002219;28;20205;-56
2023/12/27 05:14:46;;;;;;;4.10;1.37;;;;;;;4.00;75.10;100141.75;5002617;28;20200;-55
2023/12/27 05:17:14;;;;;;;2.10;1.63;;;;;;;4.01;75.17;100150.25;4995782;28;20215;-55
2023/12/27 05:19:43;;;;;;;2.47;1.10;;;;;;;4.01;75.27;100163.00;5001158;28;20659;-56
2023/12/27 05:22:11;;;;;;;4.63;0.97;;;;;;;4.01;75.62;100168.94;5002266;28;20259;-56
2023/12/27 05:24:42;;;;;;;3.13;0.93;;;;;;;4.02;75.52;100159.63;4993495;28;20239;-56
2023/12/27 05:27:10;;;;;;;2.33;1.03;;;;;;;4.03;75.72;100172.38;4997589;28;20208;-57
2023/12/27 05:29:38;;;;;;;3.27;0.90;;;;;;;4.04;75.65;100175.78;4994305;28;20677;-56
2023/12/27 05:32:07;;;;;;;5.17;1.37;;;;;;;4.02;75.56;100173.22;4994972;28;20656;-55
2023/12/27 05:34:35;;;;;;;3.50;1.03;;;;;;;4.02;75.56;100168.13;4997907;28;20235;-55
2023/12/27 05:37:05;;;;;;;3.73;1.00;;;;;;;4.04;75.49;100189.41;4994232;28;20714;-56
2023/12/27 05:39:33;;;;;;;2.03;1.00;;;;;;;4.05;75.49;100190.25;4993291;28;20220;-55
2023/12/27 05:42:01;;;;;;;4.83;1.23;;;;;;;4.05;75.82;100185.16;5002343;28;20543;-55
2023/12/27 05:44:29;;;;;;;3.17;0.90;;;;;;;4.04;75.55;100180.91;4998463;28;20644;-57
2023/12/27 05:46:58;;;;;;;4.33;1.23;;;;;;;4.06;75.69;100202.19;4995335;28;20200;-57
2023/12/27 05:49:26;;;;;;;4.83;1.10;;;;;;;4.03;75.57;100197.03;4999607;28;20674;-56
2023/12/27 05:51:54;;;;;;;3.67;1.30;;;;;;;4.04;75.89;100214.03;4996419;28;20288;-57
2023/12/27 05:54:26;;;;;;;2.40;1.30;;;;;;;4.06;75.88;100220.03;4997970;28;20566;-56
2023/12/27 05:56:54;;;;;;;2.80;0.87;;;;;;;4.06;75.79;100225.13;4997863;28;20713;-56
2023/12/27 05:59:21;;;;;;;4.60;1.10;;;;;;;4.08;75.37;100228.56;4995180;28;20216;-58
2023/12/27 06:01:52;;;;;;;2.63;1.00;;;;;;;4.07;75.49;100244.69;4992975;28;20204;-55
2023/12/27 06:04:20;;;;;;;3.27;1.07;;;;;;;4.08;75.33;100234.50;5001094;28;20200;-54
2023/12/27 06:06:49;;;;;;;3.03;0.93;;;;;;;4.06;75.10;100250.63;5003596;28;20682;-55
2023/12/27 06:09:17;;;;;;;3.70;1.20;;;;;;;4.05;75.06;100244.69;5009264;28;20203;-56
2023/12/27 06:11:47;;;;;;;1.90;0.90;;;;;;;4.05;75.15;100242.13;5003333;28;20208;-54
2023/12/27 06:14:15;;;;;;;3.03;1.00;;;;;;;4.03;75.33;100253.13;4997584;28;20270;-56
2023/12/27 06:16:43;;;;;;;1.23;0.90;;;;;;;3.99;75.50;100256.44;4995284;28;20204;-56
2023/12/27 06:19:11;;;;;;;2.97;1.20;;;;;;;3.97;75.38;100242.81;4994244;28;20312;-55
2023/12/27 06:21:39;;;;;;;2.47;1.37;;;;;;;3.97;75.28;100258.09;4996664;28;20326;-57
2023/12/27 06:24:08;;;;;;;3.93;1.33;;;;;;;3.96;75.30;100256.38;4998583;28;20231;-54
2023/12/27 06:26:36;;;;;;;2.37;1.13;;;;;;;3.97;75.54;100268.28;4995457;28;20659;-64
2023/12/27 06:29:05;;;;;;;4.50;1.03;;;;;;;3.96;75.81;100271.69;4994606;28;20211;-57
2023/12/27 06:31:34;;;;;;;2.87;1.00;;;;;;;3.94;75.84;100283.53;4995588;28;20212;-53
2023/12/27 06:34:02;;;;;;;3.60;1.60;;;;;;;3.94;76.55;100291.19;5001264;28;20203;-57
2023/12/27 06:36:31;;;;;;;5.03;1.20;;;;;;;3.92;76.24;100285.19;4996451;28;20208;-57
2023/12/27 06:39:00;;;;;;;4.67;1.30;;;;;;;3.90;75.94;100294.50;4999908;28;20247;-53
2023/12/27 06:41:29;;;;;;;3.20;1.30;;;;;;;3.88;75.86;100310.63;5001470;28;20206;-55
2023/12/27 06:43:57;;;;;;;3.20;1.10;;;;;;;3.83;76.17;100304.59;5003983;28;20207;-55
2023/12/27 06:46:26;;;;;;;3.30;1.10;;;;;;;3.76;76.49;100324.84;4994970;28;20671;-55
2023/12/27 06:48:54;;;;;;;5.83;1.37;;;;;;;3.74;76.60;100318.84;4995576;28;20686;-56
2023/12/27 06:51:22;;;;;;;5.03;1.23;;;;;;;3.75;76.42;100325.63;4992517;28;20892;-55
2023/12/27 06:53:50;;;;;;;3.67;1.40;;;;;;;3.76;77.09;100335.88;5001360;28;20227;-60
2023/12/27 06:56:18;;;;;;;5.13;1.63;;;;;;;3.76;76.45;100335.88;4992631;28;20219;-55
2023/12/27 06:58:46;;;;;;;2.70;1.37;;;;;;;3.74;76.51;100347.72;4993235;28;20230;-54
2023/12/27 07:01:15;;;;;;;2.70;1.07;;;;;;;3.73;76.42;100340.06;5001057;28;20208;-55
2023/12/27 07:03:44;;;;;;;5.40;1.30;;;;;;;3.66;77.01;100349.25;4992573;28;20554;-57
2023/12/27 07:06:12;;;;;;;6.20;1.50;;;;;;;3.61;76.98;100349.16;4992605;28;20208;-56
2023/12/27 07:08:40;;;;;;;2.77;1.10;;;;;;;3.56;76.68;100358.38;4998178;28;20188;-54
2023/12/27 07:11:10;;;;;;;5.97;1.80;;;;;;;3.52;77.29;100361.69;4990258;28;20238;-54
2023/12/27 07:13:38;;;;;;;3.97;1.33;;;;;;;3.50;77.36;100373.53;4995649;28;20580;-60
2023/12/27 07:16:07;;;;;;;9.03;1.53;;;;;;;3.51;77.54;100384.59;4993184;28;20588;-54
2023/12/27 07:18:34;;;;;;;4.70;1.60;;;;;;;3.48;77.15;100384.50;4997425;28;20269;-56
2023/12/27 07:21:05;;;;;;;4.83;1.50;;;;;;;3.47;77.22;100387.91;4992439;28;20651;-56
2023/12/27 07:23:33;;;;;;;4.60;1.60;;;;;;;3.49;77.37;100414.25;4994116;28;20635;-54
2023/12/27 07:26:01;;;;;;;6.03;1.23;;;;;;;3.51;76.41;100410.91;4998587;28;20199;-55
2023/12/27 07:28:30;;;;;;;6.37;1.50;;;;;;;3.57;76.64;100421.25;4998512;28;20666;-56
2023/12/27 07:30:58;;;;;;;2.80;1.00;;;;;;;3.59;76.03;100414.50;4991361;28;20200;-56
2023/12/27 07:33:26;;;;;;;4.33;1.50;;;;;;;3.64;75.85;100427.34;4997305;28;20206;-53
2023/12/27 07:35:54;;;;;;;4.37;1.50;;;;;;;3.68;75.40;100434.22;4996280;28;20203;-54
2023/12/27 07:38:24;;;;;;;4.23;1.60;;;;;;;3.71;74.79;100436.84;4997824;28;20310;-55
2023/12/27 07:40:52;;;;;;;6.27;1.80;;;;;;;3.76;73.85;100452.25;4989129;28;20208;-54
2023/12/27 07:43:22;;;;;;;4.00;1.43;;;;;;;3.79;73.86;100442.09;4991287;28;20294;-57
2023/12/27 07:45:50;;;;;;;4.33;1.57;;;;;;;3.82;73.46;100463.44;4992337;28;20726;-56
2023/12/27 07:48:18;;;;;;;3.00;1.30;;;;;;;3.83;73.34;100446.47;4989393;28;20265;-54
2023/12/27 07:50:46;;;;;;;3.40;1.37;;;;;;;3.85;72.94;100463.50;4992803;28;20240;-55
2023/12/27 07:53:14;;;;;;;3.20;1.10;;;;;;;3.86;73.29;100460.13;4992026;28;20203;-54
2023/12/27 07:55:43;;;;;;;4.57;2.03;;;;;;;3.88;73.69;100478.00;4990343;28;20212;-55
2023/12/27 07:58:11;;;;;;;6.53;1.50;;;;;;;3.88;73.48;100466.13;4994676;28;20204;-59
2023/12/27 08:00:40;;;;;;;4.47;1.70;;;;;;;3.92;74.23;100473.84;4993739;28;20238;-54
2023/12/27 08:03:09;;;;;;;3.13;1.50;;;;;;;3.94;74.38;100488.34;4992047;28;20659;-53
2023/12/27 08:05:37;;;;;;;4.20;1.30;;;;;;;3.96;74.98;100471.38;4991211;28;20204;-51
2023/12/27 08:08:05;;;;;;;5.87;1.57;;;;;;;3.95;74.97;100490.06;4992279;28;20207;-54
2023/12/27 08:10:33;;;;;;;5.20;1.87;;;;;;;3.93;75.39;100490.84;4991605;28;20200;-55
2023/12/27 08:13:07;;;;;;;4.37;1.50;;;;;;;3.94;75.69;100505.31;4997096;28;20584;-57
2023/12/27 08:15:35;;;;;;;4.30;1.77;;;;;;;3.91;75.71;100507.81;4995499;28;20214;-55
2023/12/27 08:18:04;;;;;;;4.83;1.53;;;;;;;3.93;75.97;100518.88;4990138;28;20208;-54
2023/12/27 08:20:32;;;;;;;4.27;1.53;;;;;;;3.94;76.38;100508.75;5000503;28;20226;-51
2023/12/27 08:23:00;;;;;;;7.03;1.93;;;;;;;3.95;75.89;100525.75;4984198;28;20247;-53
2023/12/27 08:25:29;;;;;;;3.33;1.80;;;;;;;3.97;76.75;100535.97;4991948;28;20212;-53
2023/12/27 08:27:58;;;;;;;5.80;1.57;;;;;;;3.97;76.11;100534.28;4994391;28;20662;-52
2023/12/27 08:30:28;;;;;;;6.03;2.13;;;;;;;4.00;76.02;100538.59;4990131;28;20200;-53
2023/12/27 08:32:58;;;;;;;5.30;1.60;;;;;;;4.00;76.48;100544.56;4991650;28;20270;-55
2023/12/27 08:35:27;;;;;;;5.67;1.60;;;;;;;4.02;76.09;100552.25;4992608;28;20221;-54
2023/12/27 08:37:55;;;;;;;4.13;1.80;;;;;;;4.03;75.99;100548.88;4991920;28;20606;-56
2023/12/27 08:40:23;;;;;;;5.77;1.50;;;;;;;4.03;76.02;100559.06;4994341;28;20216;-52
2023/12/27 08:42:51;;;;;;;9.40;2.07;;;;;;;4.06;75.55;100564.25;4992534;28;20226;-54
2023/12/27 08:45:19;;;;;;;5.10;1.30;;;;;;;4.07;75.49;100576.16;4992963;28;20200;-56
2023/12/27 08:47:48;;;;;;;4.40;1.73;;;;;;;4.05;75.80;100578.69;4990971;28;20216;-52
2023/12/27 08:50:16;;;;;;;5.23;1.73;;;;;;;4.05;75.88;100572.69;4996493;28;20655;-54
2023/12/27 08:52:44;;;;;;;5.77;1.70;;;;;;;4.05;75.60;100585.47;5002009;28;20258;-53
2023/12/27 08:55:14;;;;;;;6.37;1.63;;;;;;;4.06;75.90;100587.19;4991421;28;20196;-51
2023/12/27 08:57:42;;;;;;;3.80;1.80;;;;;;;4.07;75.64;100588.91;4991789;28;20211;-55
2023/12/27 09:00:11;;;;;;;7.10;2.23;;;;;;;4.07;75.94;100586.38;4997895;28;20208;-53
2023/12/27 09:02:39;;;;;;;6.57;1.63;;;;;;;3.99;76.05;100598.06;4994893;28;20633;-55
2023/12/27 09:05:09;;;;;;;7.83;2.20;;;;;;;3.95;76.04;100586.09;4999528;28;20208;-56
2023/12/27 09:07:38;;;;;;;9.97;2.00;;;;;;;3.97;76.50;100605.66;4995269;28;20631;-54
2023/12/27 09:10:07;;;;;;;5.13;1.97;;;;;;;4.01;76.28;100606.59;4997392;28;20543;-55
2023/12/27 09:12:38;;;;;;;6.00;1.80;;;;;;;4.03;76.41;100605.84;4991912;28;20208;-56
2023/12/27 09:15:07;;;;;;;3.53;1.60;;;;;;;4.04;76.38;100610.09;4995744;28;20215;-58
2023/12/27 09:17:36;;;;;;;5.97;1.90;;;;;;;4.09;76.14;100615.31;4994318;28;20227;-55
2023/12/27 09:20:07;;;;;;;8.57;2.07;;;;;;;4.11;76.47;100624.72;4997899;28;20286;-56
2023/12/27 09:22:37;;;;;;;4.57;2.10;;;;;;;4.05;76.39;100619.50;4993420;28;20234;-54
2023/12/27 09:25:06;;;;;;;6.17;1.80;;;;;;;3.99;76.84;100621.03;5004900;28;20214;-54
2023/12/27 09:27:34;;;;;;;3.63;1.80;;;;;;;4.03;76.32;100640.66;4995578;28;20298;-55
2023/12/27 09:30:02;;;;;;;5.07;2.07;;;;;;;4.03;76.77;100615.16;4995047;28;20261;-55
2023/12/27 09:32:30;;;;;;;6.93;2.50;;;;;;;4.05;76.63;100645.00;4990767;28;20283;-56
2023/12/27 09:34:58;;;;;;;6.17;2.10;;;;;;;4.03;76.87;100630.47;4996804;28;20216;-55
2023/12/27 09:37:26;;;;;;;3.67;1.70;;;;;;;4.06;76.96;100628.84;4995433;28;20204;-54
2023/12/27 09:39:55;;;;;;;6.20;1.87;;;;;;;4.15;76.70;100635.00;5003190;28;20334;-56
2023/12/27 09:42:23;;;;;;;5.87;2.30;;;;;;;4.27;76.30;100632.72;4991856;28;20196;-52
2023/12/27 09:44:54;;;;;;;7.70;2.07;;;;;;;4.36;75.73;100635.50;5003895;28;20243;-58
2023/12/27 09:47:24;;;;;;;8.00;2.10;;;;;;;4.44;75.70;100643.34;4999843;28;20305;-60
2023/12/27 09:49:55;;;;;;;8.90;2.37;;;;;;;4.48;75.14;100642.56;4993239;28;20258;-54
2023/12/27 09:52:24;;;;;;;6.63;2.37;;;;;;;4.40;75.37;100636.44;5002035;28;20940;-56
2023/12/27 09:54:52;;;;;;;5.07;1.70;;;;;;;4.45;75.20;100650.16;5007505;28;20211;-59
2023/12/27 09:57:23;;;;;;;7.37;2.40;;;;;;;4.51;74.56;100640.94;4999665;28;20262;-55
2023/12/27 09:59:54;;;;;;;7.13;1.87;;;;;;;4.50;74.73;100628.19;4999271;28;20692;-53
2023/12/27 10:02:28;;;;;;;4.10;2.20;;;;;;;4.51;75.15;100624.78;4998549;28;20566;-54
2023/12/27 10:05:06;;;;;;;5.43;2.40;;;;;;;4.50;74.25;100630.72;4993736;28;20208;-54
2023/12/27 10:07:39;;;;;;;6.20;2.60;;;;;;;4.48;74.52;100643.44;4989142;28;20726;-55
2023/12/27 10:10:08;;;;;;;5.93;2.10;;;;;;;4.49;74.69;100644.28;4998350;28;20575;-55
2023/12/27 10:12:55;;;;;;;5.37;2.30;;;;;;;4.51;74.77;100647.75;5001256;28;20192;-56
2023/12/27 10:15:23;;;;;;;5.90;2.00;;;;;;;4.53;74.40;100644.41;4990236;28;20698;-56
2023/12/27 10:17:51;;;;;;;5.83;2.20;;;;;;;4.52;74.64;100652.00;4992074;28;20216;-56
2023/12/27 10:20:31;;;;;;;5.33;2.03;;;;;;;4.60;74.76;100655.59;4997035;28;20741;-57
2023/12/27 10:23:00;;;;;;;4.47;1.77;;;;;;;4.65;73.32;100646.38;4992821;28;20235;-55
2023/12/27 10:25:28;;;;;;;7.30;2.37;;;;;;;4.70;73.61;100654.13;4999222;28;20204;-56
2023/12/27 10:27:58;;;;;;;4.73;2.20;;;;;;;4.75;74.18;100655.06;4995860;28;20656;-57
2023/12/27 10:30:27;;;;;;;7.47;2.77;;;;;;;4.78;72.90;100652.59;4995559;28;20677;-53
2023/12/27 10:32:58;;;;;;;6.13;2.40;;;;;;;4.78;73.16;100650.91;4992262;28;20295;-54
2023/12/27 10:35:27;;;;;;;7.00;2.37;;;;;;;4.82;73.28;100647.59;4999432;28;20203;-56
2023/12/27 10:38:04;;;;;;;8.40;2.63;;;;;;;4.82;72.68;100645.06;5002203;28;20210;-54
2023/12/27 10:40:34;;;;;;;5.37;2.10;;;;;;;4.81;71.68;100666.28;4996914;28;20717;-56
2023/12/27 10:43:04;;;;;;;6.93;3.00;;;;;;;4.79;72.28;100651.78;4991937;28;20603;-53
2023/12/27 10:45:32;;;;;;;4.97;2.00;;;;;;;4.74;72.49;100664.44;4994308;28;20235;-56
2023/12/27 10:48:01;;;;;;;5.80;2.30;;;;;;;4.73;72.69;100664.41;4994565;28;20291;-54
2023/12/27 10:50:31;;;;;;;4.80;2.03;;;;;;;4.76;71.99;100662.78;4991067;28;20214;-54
2023/12/27 10:53:04;;;;;;;9.90;1.77;;;;;;;4.80;71.52;100671.38;5001711;28;20207;-58
2023/12/27 10:55:34;;;;;;;5.93;1.80;;;;;;;4.85;71.78;100667.22;4996692;28;20282;-60
2023/12/27 10:58:07;;;;;;;7.53;1.83;;;;;;;4.90;70.65;100670.75;4991811;28;20200;-56
2023/12/27 11:00:35;;;;;;;6.17;2.13;;;;;;;4.95;70.53;100658.06;4997448;28;20227;-57
2023/12/27 11:03:04;;;;;;;6.43;2.13;;;;;;;4.92;70.06;100668.22;4997010;28;20212;-55
2023/12/27 11:05:33;;;;;;;6.07;2.00;;;;;;;4.85;70.63;100655.31;4993578;28;20212;-57
2023/12/27 11:08:02;;;;;;;6.87;2.10;;;;;;;4.82;70.74;100672.25;4991934;28;20297;-57
2023/12/27 11:10:31;;;;;;;8.27;2.17;;;;;;;4.84;70.57;100663.81;4989926;28;20205;-53
2023/12/27 11:13:00;;;;;;;4.57;1.67;;;;;;;4.88;70.29;100681.75;4990540;28;20550;-55
2023/12/27 11:15:32;;;;;;;7.03;2.10;;;;;;;4.88;70.56;100674.94;4987704;28;20200;-55
2023/12/27 11:18:01;;;;;;;5.13;1.90;;;;;;;4.90;70.75;100677.53;4991011;28;20216;-54
2023/12/27 11:20:32;;;;;;;7.63;2.20;;;;;;;4.90;70.14;100687.72;4996882;28;20303;-61
2023/12/27 11:23:00;;;;;;;6.97;1.77;;;;;;;4.93;70.45;100690.34;4997465;28;20793;-56
2023/12/27 11:25:29;;;;;;;6.23;2.23;;;;;;;4.92;69.20;100684.41;4993537;28;20196;-58
2023/12/27 11:27:59;;;;;;;6.17;1.90;;;;;;;4.95;69.62;100692.13;4992341;28;20211;-56
2023/12/27 11:30:29;;;;;;;7.07;1.77;;;;;;;4.95;68.45;100684.47;4987964;28;20644;-58
2023/12/27 11:32:57;;;;;;;4.10;2.10;;;;;;;4.97;68.31;100687.03;4987159;28;20208;-56
2023/12/27 11:35:26;;;;;;;7.50;2.30;;;;;;;5.01;68.12;100686.31;4992414;28;20583;-58
2023/12/27 11:38:13;;;;;;;5.97;1.97;;;;;;;5.05;68.54;100685.53;4987610;28;20204;-56
2023/12/27 11:40:43;;;;;;;6.27;2.30;;;;;;;5.04;68.35;100689.78;4994378;28;20211;-56
2023/12/27 11:43:16;;;;;;;6.63;1.90;;;;;;;5.04;66.12;100688.91;4989923;28;20258;-55